createdAt,value
2023-03-22T00:01:10.367Z,85.36
2023-03-22T00:03:39.262Z,85.50
2023-03-22T00:06:08.356Z,85.83
2023-03-22T00:08:36.648Z,86.49
2023-03-22T00:11:05.901Z,86.36
2023-03-22T00:13:35.715Z,86.66
2023-03-22T00:16:06.501Z,86.40
2023-03-22T00:18:34.570Z,86.48
2023-03-22T00:21:02.839Z,86.51
2023-03-22T00:23:31.042Z,86.95
2023-03-22T00:25:59.764Z,87.56
2023-03-22T00:28:28.860Z,87.55
2023-03-22T00:30:59.393Z,88.10
2023-03-22T00:33:31.368Z,88.10
2023-03-22T00:36:01.178Z,87.90
2023-03-22T00:38:42.554Z,87.72
2023-03-22T00:41:14.716Z,87.66
2023-03-22T00:43:43.180Z,87.85
2023-03-22T00:46:12.393Z,88.29
2023-03-22T00:48:42.473Z,88.48
2023-03-22T00:51:11.607Z,89.40
2023-03-22T00:53:42.805Z,89.81
2023-03-22T00:56:15.894Z,89.98
2023-03-22T00:58:56.919Z,90.11
2023-03-22T01:01:25.206Z,90.03
2023-03-22T01:03:54.927Z,89.91
2023-03-22T01:06:23.271Z,89.53
2023-03-22T01:08:55.299Z,90.12
2023-03-22T01:11:24.180Z,89.82
2023-03-22T01:13:52.830Z,90.00
2023-03-22T01:16:21.752Z,91.04
2023-03-22T01:18:50.432Z,91.27
2023-03-22T01:21:20.349Z,92.24
2023-03-22T01:23:48.534Z,91.95
2023-03-22T01:26:17.101Z,92.30
2023-03-22T01:28:45.111Z,92.05
2023-03-22T01:31:13.640Z,92.42
2023-03-22T01:33:41.989Z,92.59
2023-03-22T01:36:10.635Z,92.53
2023-03-22T01:38:40.295Z,92.43
2023-03-22T01:41:08.708Z,92.30
2023-03-22T01:43:40.374Z,92.32
2023-03-22T01:46:09.758Z,92.26
2023-03-22T01:48:42.074Z,92.42
2023-03-22T01:51:14.291Z,92.02
2023-03-22T01:54:00.568Z,91.78
2023-03-22T01:56:32.536Z,92.63
2023-03-22T01:59:01.724Z,93.82
2023-03-22T02:01:40.976Z,93.71
2023-03-22T02:04:13.832Z,93.44
2023-03-22T02:06:42.909Z,92.96
2023-03-22T02:09:22.010Z,92.81
2023-03-22T02:11:56.704Z,92.61
2023-03-22T02:14:50.322Z,92.51
2023-03-22T02:18:06.439Z,92.83
2023-03-22T02:21:02.552Z,93.19
2023-03-22T02:24:02.311Z,92.78
2023-03-22T02:27:16.290Z,93.15
2023-03-22T02:29:48.220Z,92.93
2023-03-22T02:32:49.956Z,91.94
2023-03-22T02:35:31.889Z,91.65
2023-03-22T02:38:19.045Z,92.35
2023-03-22T02:40:53.836Z,92.41
2023-03-22T02:43:38.737Z,93.14
2023-03-22T02:46:12.266Z,94.00
2023-03-22T02:48:46.072Z,94.46
2023-03-22T02:51:20.143Z,94.75
2023-03-22T02:53:54.095Z,95.14
2023-03-22T02:56:30.004Z,94.92
2023-03-22T02:59:01.957Z,94.71
2023-03-22T03:01:37.241Z,94.46
2023-03-22T03:04:08.456Z,94.69
2023-03-22T03:06:41.047Z,95.24
2023-03-22T03:09:09.908Z,95.39
2023-03-22T03:11:39.736Z,95.24
2023-03-22T03:14:07.894Z,95.67
2023-03-22T03:16:36.692Z,95.76
2023-03-22T03:19:16.365Z,96.05
2023-03-22T03:21:52.012Z,95.98
2023-03-22T03:24:28.591Z,96.60
2023-03-22T03:27:05.073Z,97.60
2023-03-22T03:29:40.851Z,97.77
2023-03-22T03:32:15.969Z,97.95
2023-03-22T03:34:49.766Z,98.01
2023-03-22T03:37:22.023Z,98.08
2023-03-22T03:39:55.554Z,97.75
2023-03-22T03:42:29.104Z,98.05
2023-03-22T03:44:58.613Z,98.43
2023-03-22T03:47:29.963Z,98.46
2023-03-22T03:49:58.698Z,98.54
2023-03-22T03:52:27.679Z,98.19
2023-03-22T03:54:56.613Z,98.41
2023-03-22T03:57:31.902Z,98.22
2023-03-22T04:00:00.566Z,98.03
2023-03-22T04:03:07.455Z,98.12
2023-03-22T04:05:55.980Z,98.48
2023-03-22T04:08:24.605Z,98.76
2023-03-22T04:10:53.340Z,98.95
2023-03-22T04:13:25.317Z,98.81
2023-03-22T04:15:58.166Z,99.15
2023-03-22T04:18:29.801Z,99.36
2023-03-22T04:21:01.502Z,99.29
2023-03-22T04:23:34.105Z,99.28
2023-03-22T04:26:02.880Z,99.54
2023-03-22T04:28:55.409Z,99.69
2023-03-22T04:31:24.557Z,99.82
2023-03-22T04:34:06.833Z,99.84
2023-03-22T04:36:51.119Z,100.00
2023-03-22T04:39:25.702Z,100.00
2023-03-22T04:42:02.181Z,100.00
2023-03-22T04:44:32.461Z,100.00
2023-03-22T04:47:00.449Z,100.00
2023-03-22T04:49:29.042Z,100.00
2023-03-22T04:51:57.361Z,100.00
2023-03-22T04:54:39.020Z,100.00
2023-03-22T04:57:07.820Z,100.00
2023-03-22T04:59:44.416Z,100.00
2023-03-22T05:02:12.898Z,100.00
2023-03-22T05:04:44.184Z,100.00
2023-03-22T05:07:28.975Z,100.00
2023-03-22T05:10:00.004Z,100.00
2023-03-22T05:12:28.670Z,100.00
2023-03-22T05:15:09.276Z,99.78
2023-03-22T05:17:39.718Z,100.00
2023-03-22T05:20:10.448Z,100.00
2023-03-22T05:22:41.403Z,100.00
2023-03-22T05:25:12.190Z,100.00
2023-03-22T05:27:44.799Z,100.00
2023-03-22T05:30:33.049Z,100.00
2023-03-22T05:33:11.728Z,100.00
2023-03-22T05:35:45.158Z,100.00
2023-03-22T05:38:13.716Z,99.75
2023-03-22T05:40:46.793Z,98.97
2023-03-22T05:43:15.611Z,98.71
2023-03-22T05:45:49.605Z,98.80
2023-03-22T05:48:33.697Z,98.48
2023-03-22T05:51:03.977Z,97.80
2023-03-22T05:53:34.507Z,98.23
2023-03-22T05:56:11.425Z,98.18
2023-03-22T05:58:43.104Z,98.65
2023-03-22T06:01:16.528Z,98.38
2023-03-22T06:03:44.611Z,98.15
2023-03-22T06:06:21.305Z,98.28
2023-03-22T06:09:14.096Z,98.64
2023-03-22T06:11:44.510Z,97.82
2023-03-22T06:14:12.928Z,96.60
2023-03-22T06:17:00.222Z,96.42
2023-03-22T06:19:28.898Z,95.10
2023-03-22T06:21:58.335Z,94.21
2023-03-22T06:24:28.748Z,93.01
2023-03-22T06:26:56.758Z,92.44
2023-03-22T06:29:25.317Z,91.92
2023-03-22T06:31:55.710Z,91.16
2023-03-22T06:34:26.341Z,90.20
2023-03-22T06:36:55.330Z,90.35
2023-03-22T06:39:26.653Z,88.54
2023-03-22T06:41:55.460Z,87.91
2023-03-22T06:44:24.338Z,85.50
2023-03-22T06:47:06.177Z,84.62
2023-03-22T06:49:59.103Z,82.14
2023-03-22T06:52:39.822Z,80.87
2023-03-22T06:55:10.235Z,79.98
2023-03-22T06:57:38.580Z,79.95
2023-03-22T07:00:08.429Z,81.74
2023-03-22T07:02:37.527Z,79.76
2023-03-22T07:05:30.176Z,80.99
2023-03-22T07:07:58.501Z,79.13
2023-03-22T07:10:27.994Z,78.78
2023-03-22T07:12:56.238Z,78.61
2023-03-22T07:15:24.933Z,76.12
2023-03-22T07:18:02.854Z,74.16
2023-03-22T07:20:37.062Z,69.84
2023-03-22T07:23:06.731Z,65.89
2023-03-22T07:25:42.736Z,58.26
2023-03-22T07:28:33.174Z,55.65
2023-03-22T07:31:03.280Z,50.29
2023-03-22T07:33:37.383Z,53.23
2023-03-22T07:36:08.988Z,49.04
2023-03-22T07:38:38.320Z,45.42
2023-03-22T07:41:10.828Z,49.70
2023-03-22T07:44:07.766Z,51.97
2023-03-22T07:46:48.354Z,50.70
2023-03-22T07:49:21.416Z,52.46
2023-03-22T07:51:59.797Z,49.03
2023-03-22T07:54:33.962Z,47.22
2023-03-22T07:57:04.233Z,48.75
2023-03-22T07:59:39.901Z,51.90
2023-03-22T08:02:10.880Z,52.63
2023-03-22T08:04:45.024Z,50.75
2023-03-22T08:07:28.024Z,51.97
2023-03-22T08:09:58.286Z,51.91
2023-03-22T08:12:28.126Z,47.97
2023-03-22T08:15:07.358Z,50.93
2023-03-22T08:17:35.713Z,50.28
2023-03-22T08:20:08.585Z,46.78
2023-03-22T08:22:48.321Z,48.46
2023-03-22T08:25:29.613Z,49.96
2023-03-22T08:28:06.835Z,54.75
2023-03-22T08:30:35.532Z,54.69
2023-03-22T08:33:05.152Z,53.39
2023-03-22T08:35:33.846Z,51.25
2023-03-22T08:38:03.731Z,51.96
2023-03-22T08:40:41.356Z,51.35
2023-03-22T08:43:09.616Z,51.07
2023-03-22T08:45:38.806Z,50.23
2023-03-22T08:48:12.608Z,51.80
2023-03-22T08:51:07.834Z,49.27
2023-03-22T08:54:00.410Z,52.51
2023-03-22T08:56:48.342Z,52.41
2023-03-22T08:59:31.141Z,50.33
2023-03-22T09:02:26.681Z,47.96
2023-03-22T09:04:55.533Z,49.07
2023-03-22T09:07:24.472Z,48.34
2023-03-22T09:10:06.615Z,47.47
2023-03-22T09:12:38.241Z,45.78
2023-03-22T09:15:09.097Z,49.33
2023-03-22T09:17:40.207Z,48.89
2023-03-22T09:20:12.722Z,48.80
2023-03-22T09:22:44.087Z,48.99
2023-03-22T09:25:17.041Z,50.37
2023-03-22T09:27:48.529Z,48.77
2023-03-22T09:30:17.220Z,49.41
2023-03-22T09:32:45.741Z,50.48
2023-03-22T09:35:16.625Z,46.82
2023-03-22T09:38:00.646Z,49.73
2023-03-22T09:40:32.758Z,49.49
2023-03-22T09:43:06.522Z,48.78
2023-03-22T09:45:41.043Z,49.42
2023-03-22T09:48:17.563Z,48.55
2023-03-22T09:50:48.234Z,46.28
2023-03-22T09:53:19.255Z,45.90
2023-03-22T09:55:56.017Z,46.18
2023-03-22T09:58:29.909Z,42.78
2023-03-22T10:01:01.479Z,45.62
2023-03-22T10:03:57.423Z,45.69
2023-03-22T10:06:29.317Z,41.68
2023-03-22T10:09:07.092Z,44.04
2023-03-22T10:11:46.407Z,45.87
2023-03-22T10:14:26.369Z,47.61
2023-03-22T10:16:57.844Z,46.89
2023-03-22T10:19:32.284Z,43.86
2023-03-22T10:22:03.392Z,44.37
2023-03-22T10:24:34.519Z,43.49
2023-03-22T10:27:05.036Z,43.68
2023-03-22T10:29:38.917Z,43.17
2023-03-22T10:32:16.092Z,40.65
2023-03-22T10:34:45.166Z,42.90
2023-03-22T10:37:17.714Z,40.71
2023-03-22T10:39:50.019Z,44.44
2023-03-22T10:42:25.117Z,40.63
2023-03-22T10:44:57.453Z,41.86
2023-03-22T10:47:33.332Z,44.23
2023-03-22T10:50:04.469Z,44.87
2023-03-22T10:52:41.303Z,46.71
2023-03-22T10:55:15.780Z,43.92
2023-03-22T10:57:52.901Z,46.23
2023-03-22T11:00:24.232Z,45.73
2023-03-22T11:02:54.900Z,46.24
2023-03-22T11:05:26.810Z,46.26
2023-03-22T11:07:55.800Z,47.58
2023-03-22T11:10:28.605Z,48.01
2023-03-22T11:13:14.955Z,49.38
2023-03-22T11:15:52.978Z,49.26
2023-03-22T11:18:22.031Z,49.58
2023-03-22T11:21:00.792Z,48.19
2023-03-22T11:23:33.260Z,48.79
2023-03-22T11:26:08.195Z,47.86
2023-03-22T11:28:44.137Z,46.17
2023-03-22T11:31:13.847Z,45.97
2023-03-22T11:33:55.923Z,47.25
2023-03-22T11:36:25.074Z,44.87
2023-03-22T11:38:59.015Z,45.73
2023-03-22T11:41:29.588Z,49.33
2023-03-22T11:44:02.455Z,51.54
2023-03-22T11:46:32.209Z,48.57
2023-03-22T11:49:04.405Z,48.60
2023-03-22T11:51:36.201Z,48.48
2023-03-22T11:58:59.772Z,48.58
2023-03-22T12:01:37.433Z,50.70
2023-03-22T12:04:09.996Z,50.31
2023-03-22T12:06:40.925Z,48.95
2023-03-22T12:09:20.984Z,49.30
2023-03-22T12:11:52.698Z,45.85
2023-03-22T12:14:24.625Z,47.39
2023-03-22T12:16:59.963Z,47.07
2023-03-22T12:19:43.658Z,50.38
2023-03-22T12:22:17.193Z,49.29
2023-03-22T12:24:45.578Z,47.31
2023-03-22T12:27:19.197Z,46.42
2023-03-22T12:29:51.726Z,46.69
2023-03-22T12:32:26.859Z,47.86
2023-03-22T12:35:09.264Z,50.77
2023-03-22T12:37:44.584Z,52.06
2023-03-22T12:40:23.091Z,52.18
2023-03-22T12:43:01.806Z,49.13
2023-03-22T12:45:33.046Z,47.69
2023-03-22T12:48:09.256Z,48.91
2023-03-22T12:50:43.302Z,48.88
2023-03-22T12:53:16.386Z,46.34
2023-03-22T12:55:47.062Z,47.66
2023-03-22T12:58:23.778Z,46.89
2023-03-22T13:00:55.105Z,49.10
2023-03-22T13:03:30.015Z,47.31
2023-03-22T13:06:04.666Z,49.33
2023-03-22T13:09:18.695Z,50.63
2023-03-22T13:11:48.852Z,48.60
2023-03-22T13:14:50.473Z,46.18
2023-03-22T13:17:38.978Z,46.69
2023-03-22T13:20:28.341Z,48.00
2023-03-22T13:23:16.057Z,47.35
2023-03-22T13:26:03.566Z,48.86
2023-03-22T13:28:37.254Z,49.13
2023-03-22T13:31:06.487Z,48.91
2023-03-22T13:33:36.932Z,44.00
2023-03-22T13:36:23.960Z,46.09
2023-03-22T13:38:57.188Z,42.72
2023-03-22T13:41:29.512Z,45.19
2023-03-22T13:43:59.335Z,43.87
2023-03-22T13:46:46.693Z,43.78
2023-03-22T13:49:28.958Z,45.12
2023-03-22T13:52:02.439Z,42.38
2023-03-22T13:54:37.642Z,45.63
2023-03-22T13:57:06.245Z,45.03
2023-03-22T14:00:12.102Z,46.38
2023-03-22T14:02:43.965Z,45.35
2023-03-22T14:05:17.359Z,44.81
2023-03-22T14:07:49.894Z,43.35
2023-03-22T14:10:22.171Z,44.36
2023-03-22T14:12:53.345Z,46.09
2023-03-22T14:15:25.406Z,44.18
2023-03-22T14:17:59.632Z,45.09
2023-03-22T14:20:33.545Z,44.04
